Terminal Aerodrome Forecast
Issued by NWS Raleigh/Durham, NC

Home | Current Version | Previous Version | Text Only | Print | Product List | Glossary On
Versions: 1 2 3 4 5 6 7 8 9 10 11 12 13 14 15 16 17 18
000
FTUS42 KRAH 262340
TAFRDU
TAF
KRDU 262340Z 2700/2724 VRB05KT P6SM SCT080 BKN250
      TEMPO 2700/2703 6SM -SHRA BKN050 OVC080
     FM271300 21010KT P6SM SCT025 BKN040
      TEMPO 2713/2717 BKN025=

USA.gov is the U.S. government's official web portal to all federal, state and local government web resources and services.